sensor_id;sensor_type;location;lat;lon;timestamp;P1;durP1;ratioP1;P2;durP2;ratioP2
23072;SDS011;67971;51.046;3.732;2023-05-10T00:00:46;39.90;;;19.97;;
23072;SDS011;67971;51.046;3.732;2023-05-10T00:03:12;40.77;;;19.10;;
23072;SDS011;67971;51.046;3.732;2023-05-10T00:05:38;38.27;;;20.33;;
23072;SDS011;67971;51.046;3.732;2023-05-10T00:08:04;40.80;;;19.27;;
23072;SDS011;67971;51.046;3.732;2023-05-10T00:10:29;37.27;;;20.70;;
23072;SDS011;67971;51.046;3.732;2023-05-10T00:12:55;43.53;;;20.60;;
23072;SDS011;67971;51.046;3.732;2023-05-10T00:15:21;42.10;;;21.93;;
23072;SDS011;67971;51.046;3.732;2023-05-10T00:17:47;46.43;;;20.93;;
23072;SDS011;67971;51.046;3.732;2023-05-10T00:20:12;37.83;;;21.40;;
23072;SDS011;67971;51.046;3.732;2023-05-10T00:22:38;41.27;;;22.13;;
23072;SDS011;67971;51.046;3.732;2023-05-10T00:25:04;46.83;;;22.90;;
23072;SDS011;67971;51.046;3.732;2023-05-10T00:27:31;45.43;;;22.50;;
23072;SDS011;67971;51.046;3.732;2023-05-10T00:29:56;43.83;;;21.47;;
23072;SDS011;67971;51.046;3.732;2023-05-10T00:32:22;38.30;;;22.43;;
23072;SDS011;67971;51.046;3.732;2023-05-10T00:34:48;45.87;;;25.03;;
23072;SDS011;67971;51.046;3.732;2023-05-10T00:37:13;42.77;;;24.57;;
23072;SDS011;67971;51.046;3.732;2023-05-10T00:39:39;50.40;;;28.10;;
23072;SDS011;67971;51.046;3.732;2023-05-10T00:42:04;48.67;;;28.50;;
23072;SDS011;67971;51.046;3.732;2023-05-10T00:44:30;50.07;;;27.60;;
23072;SDS011;67971;51.046;3.732;2023-05-10T00:46:56;52.10;;;28.23;;
23072;SDS011;67971;51.046;3.732;2023-05-10T00:49:22;56.80;;;29.87;;
23072;SDS011;67971;51.046;3.732;2023-05-10T00:51:48;57.67;;;30.83;;
23072;SDS011;67971;51.046;3.732;2023-05-10T00:54:14;64.30;;;32.80;;
23072;SDS011;67971;51.046;3.732;2023-05-10T00:56:40;69.90;;;31.23;;
23072;SDS011;67971;51.046;3.732;2023-05-10T00:59:09;55.13;;;30.40;;
23072;SDS011;67971;51.046;3.732;2023-05-10T01:01:36;67.63;;;30.40;;
23072;SDS011;67971;51.046;3.732;2023-05-10T01:04:03;68.73;;;31.30;;
23072;SDS011;67971;51.046;3.732;2023-05-10T01:06:29;61.37;;;30.07;;
23072;SDS011;67971;51.046;3.732;2023-05-10T01:08:55;60.80;;;30.87;;
23072;SDS011;67971;51.046;3.732;2023-05-10T01:11:21;59.10;;;32.03;;
23072;SDS011;67971;51.046;3.732;2023-05-10T01:13:47;57.60;;;29.63;;
23072;SDS011;67971;51.046;3.732;2023-05-10T01:16:17;57.93;;;31.23;;
23072;SDS011;67971;51.046;3.732;2023-05-10T01:18:43;51.13;;;29.20;;
23072;SDS011;67971;51.046;3.732;2023-05-10T01:29:40;53.87;;;29.83;;
23072;SDS011;67971;51.046;3.732;2023-05-10T01:37:58;52.60;;;30.00;;
23072;SDS011;67971;51.046;3.732;2023-05-10T01:43:35;49.93;;;29.30;;
23072;SDS011;67971;51.046;3.732;2023-05-10T01:46:09;47.23;;;29.43;;
23072;SDS011;67971;51.046;3.732;2023-05-10T01:48:48;48.30;;;29.27;;
23072;SDS011;67971;51.046;3.732;2023-05-10T01:51:20;47.97;;;27.73;;
23072;SDS011;67971;51.046;3.732;2023-05-10T01:53:48;56.80;;;30.53;;
23072;SDS011;67971;51.046;3.732;2023-05-10T01:56:16;50.67;;;27.37;;
23072;SDS011;67971;51.046;3.732;2023-05-10T01:58:48;49.77;;;28.70;;
23072;SDS011;67971;51.046;3.732;2023-05-10T02:01:15;51.67;;;31.07;;
23072;SDS011;67971;51.046;3.732;2023-05-10T02:03:44;43.00;;;27.70;;
23072;SDS011;67971;51.046;3.732;2023-05-10T02:06:10;49.30;;;29.70;;
23072;SDS011;67971;51.046;3.732;2023-05-10T02:08:39;51.87;;;28.67;;
23072;SDS011;67971;51.046;3.732;2023-05-10T02:11:06;54.43;;;29.90;;
23072;SDS011;67971;51.046;3.732;2023-05-10T02:13:33;52.23;;;30.43;;
23072;SDS011;67971;51.046;3.732;2023-05-10T02:16:01;57.30;;;31.20;;
23072;SDS011;67971;51.046;3.732;2023-05-10T02:18:28;57.47;;;31.37;;
23072;SDS011;67971;51.046;3.732;2023-05-10T02:20:55;58.53;;;30.90;;
23072;SDS011;67971;51.046;3.732;2023-05-10T02:23:21;58.07;;;31.27;;
23072;SDS011;67971;51.046;3.732;2023-05-10T02:25:48;56.40;;;30.97;;
23072;SDS011;67971;51.046;3.732;2023-05-10T02:28:16;54.83;;;30.77;;
23072;SDS011;67971;51.046;3.732;2023-05-10T02:30:43;56.83;;;30.83;;
23072;SDS011;67971;51.046;3.732;2023-05-10T02:33:09;56.37;;;29.67;;
23072;SDS011;67971;51.046;3.732;2023-05-10T02:35:36;57.07;;;30.60;;
23072;SDS011;67971;51.046;3.732;2023-05-10T02:38:03;54.57;;;30.83;;
23072;SDS011;67971;51.046;3.732;2023-05-10T02:40:30;58.33;;;30.50;;
23072;SDS011;67971;51.046;3.732;2023-05-10T02:42:58;56.40;;;30.10;;
23072;SDS011;67971;51.046;3.732;2023-05-10T02:45:27;54.07;;;30.27;;
23072;SDS011;67971;51.046;3.732;2023-05-10T02:47:56;57.77;;;29.77;;
23072;SDS011;67971;51.046;3.732;2023-05-10T02:50:23;51.10;;;28.30;;
23072;SDS011;67971;51.046;3.732;2023-05-10T02:52:54;52.00;;;28.93;;
23072;SDS011;67971;51.046;3.732;2023-05-10T02:55:25;52.80;;;29.00;;
23072;SDS011;67971;51.046;3.732;2023-05-10T02:57:58;54.90;;;29.07;;
23072;SDS011;67971;51.046;3.732;2023-05-10T03:00:25;49.33;;;27.87;;
23072;SDS011;67971;51.046;3.732;2023-05-10T03:02:51;51.43;;;28.67;;
23072;SDS011;67971;51.046;3.732;2023-05-10T03:05:17;50.93;;;26.87;;
23072;SDS011;67971;51.046;3.732;2023-05-10T03:07:44;47.60;;;28.33;;
23072;SDS011;67971;51.046;3.732;2023-05-10T03:10:11;53.07;;;28.83;;
23072;SDS011;67971;51.046;3.732;2023-05-10T03:16:06;51.57;;;28.10;;
23072;SDS011;67971;51.046;3.732;2023-05-10T03:18:11;50.37;;;27.03;;
23072;SDS011;67971;51.046;3.732;2023-05-10T03:20:45;48.67;;;27.50;;
23072;SDS011;67971;51.046;3.732;2023-05-10T03:23:20;45.37;;;27.03;;
23072;SDS011;67971;51.046;3.732;2023-05-10T03:25:48;47.77;;;28.07;;
23072;SDS011;67971;51.046;3.732;2023-05-10T03:28:16;52.20;;;28.80;;
23072;SDS011;67971;51.046;3.732;2023-05-10T03:30:43;48.70;;;28.73;;
23072;SDS011;67971;51.046;3.732;2023-05-10T03:33:10;50.77;;;27.37;;
23072;SDS011;67971;51.046;3.732;2023-05-10T03:35:35;47.43;;;28.30;;
23072;SDS011;67971;51.046;3.732;2023-05-10T03:38:01;50.50;;;28.10;;
23072;SDS011;67971;51.046;3.732;2023-05-10T03:40:27;52.43;;;29.33;;
23072;SDS011;67971;51.046;3.732;2023-05-10T03:42:56;47.87;;;27.13;;
23072;SDS011;67971;51.046;3.732;2023-05-10T03:45:22;53.67;;;29.10;;
23072;SDS011;67971;51.046;3.732;2023-05-10T03:47:48;50.73;;;29.70;;
23072;SDS011;67971;51.046;3.732;2023-05-10T03:50:13;49.07;;;29.33;;
23072;SDS011;67971;51.046;3.732;2023-05-10T03:52:39;54.07;;;29.50;;
23072;SDS011;67971;51.046;3.732;2023-05-10T03:55:05;53.80;;;28.97;;
23072;SDS011;67971;51.046;3.732;2023-05-10T03:57:31;54.27;;;29.17;;
23072;SDS011;67971;51.046;3.732;2023-05-10T03:59:57;54.83;;;29.67;;
23072;SDS011;67971;51.046;3.732;2023-05-10T04:02:23;50.90;;;31.03;;
23072;SDS011;67971;51.046;3.732;2023-05-10T04:04:48;57.30;;;32.40;;
23072;SDS011;67971;51.046;3.732;2023-05-10T04:07:14;50.67;;;29.23;;
23072;SDS011;67971;51.046;3.732;2023-05-10T04:09:40;51.73;;;30.53;;
23072;SDS011;67971;51.046;3.732;2023-05-10T04:12:06;52.97;;;31.13;;
23072;SDS011;67971;51.046;3.732;2023-05-10T04:14:31;53.20;;;30.83;;
23072;SDS011;67971;51.046;3.732;2023-05-10T04:16:57;55.20;;;30.67;;
23072;SDS011;67971;51.046;3.732;2023-05-10T04:19:23;59.73;;;31.63;;
23072;SDS011;67971;51.046;3.732;2023-05-10T04:21:48;59.23;;;32.73;;
23072;SDS011;67971;51.046;3.732;2023-05-10T04:24:14;52.57;;;31.40;;
23072;SDS011;67971;51.046;3.732;2023-05-10T04:26:40;61.70;;;32.73;;
23072;SDS011;67971;51.046;3.732;2023-05-10T04:29:06;60.63;;;32.53;;
23072;SDS011;67971;51.046;3.732;2023-05-10T04:31:31;57.87;;;32.60;;
23072;SDS011;67971;51.046;3.732;2023-05-10T04:33:57;65.03;;;34.70;;
23072;SDS011;67971;51.046;3.732;2023-05-10T04:36:23;60.90;;;34.23;;
23072;SDS011;67971;51.046;3.732;2023-05-10T04:38:48;53.50;;;32.83;;
23072;SDS011;67971;51.046;3.732;2023-05-10T04:41:14;60.87;;;34.53;;
23072;SDS011;67971;51.046;3.732;2023-05-10T04:43:40;57.87;;;32.60;;
23072;SDS011;67971;51.046;3.732;2023-05-10T04:46:05;55.60;;;33.23;;
23072;SDS011;67971;51.046;3.732;2023-05-10T04:48:32;58.67;;;34.03;;
23072;SDS011;67971;51.046;3.732;2023-05-10T04:50:58;55.47;;;34.33;;
23072;SDS011;67971;51.046;3.732;2023-05-10T04:53:24;60.77;;;35.27;;
23072;SDS011;67971;51.046;3.732;2023-05-10T04:55:50;60.47;;;35.27;;
23072;SDS011;67971;51.046;3.732;2023-05-10T04:58:16;58.87;;;34.67;;
23072;SDS011;67971;51.046;3.732;2023-05-10T05:00:41;58.07;;;33.43;;
23072;SDS011;67971;51.046;3.732;2023-05-10T05:03:07;56.23;;;31.93;;
23072;SDS011;67971;51.046;3.732;2023-05-10T05:05:33;58.97;;;33.93;;
23072;SDS011;67971;51.046;3.732;2023-05-10T05:07:59;59.13;;;34.10;;
23072;SDS011;67971;51.046;3.732;2023-05-10T05:10:25;58.10;;;35.43;;
23072;SDS011;67971;51.046;3.732;2023-05-10T05:12:51;66.43;;;36.20;;
23072;SDS011;67971;51.046;3.732;2023-05-10T05:15:17;62.73;;;36.37;;
23072;SDS011;67971;51.046;3.732;2023-05-10T05:17:43;60.77;;;35.40;;
23072;SDS011;67971;51.046;3.732;2023-05-10T05:20:08;63.47;;;36.90;;
23072;SDS011;67971;51.046;3.732;2023-05-10T05:22:38;56.57;;;34.70;;
23072;SDS011;67971;51.046;3.732;2023-05-10T05:25:04;61.07;;;36.10;;
23072;SDS011;67971;51.046;3.732;2023-05-10T05:27:30;65.87;;;37.47;;
23072;SDS011;67971;51.046;3.732;2023-05-10T05:29:56;65.83;;;34.80;;
23072;SDS011;67971;51.046;3.732;2023-05-10T05:32:22;65.70;;;36.10;;
23072;SDS011;67971;51.046;3.732;2023-05-10T05:34:49;64.03;;;35.17;;
23072;SDS011;67971;51.046;3.732;2023-05-10T05:37:15;72.50;;;38.73;;
23072;SDS011;67971;51.046;3.732;2023-05-10T05:39:42;68.80;;;38.30;;
23072;SDS011;67971;51.046;3.732;2023-05-10T05:42:08;59.70;;;36.60;;
23072;SDS011;67971;51.046;3.732;2023-05-10T05:44:34;68.00;;;37.80;;
23072;SDS011;67971;51.046;3.732;2023-05-10T05:47:00;64.33;;;36.80;;
23072;SDS011;67971;51.046;3.732;2023-05-10T05:49:26;68.87;;;37.60;;
23072;SDS011;67971;51.046;3.732;2023-05-10T05:51:52;65.00;;;37.93;;
23072;SDS011;67971;51.046;3.732;2023-05-10T05:54:17;59.83;;;33.80;;
23072;SDS011;67971;51.046;3.732;2023-05-10T05:56:43;61.43;;;37.13;;
23072;SDS011;67971;51.046;3.732;2023-05-10T05:59:09;67.17;;;37.73;;
23072;SDS011;67971;51.046;3.732;2023-05-10T06:01:36;59.37;;;36.73;;
23072;SDS011;67971;51.046;3.732;2023-05-10T06:04:01;69.03;;;37.57;;
23072;SDS011;67971;51.046;3.732;2023-05-10T06:06:27;60.27;;;36.20;;
23072;SDS011;67971;51.046;3.732;2023-05-10T06:08:53;65.67;;;36.57;;
23072;SDS011;67971;51.046;3.732;2023-05-10T06:11:19;59.17;;;34.87;;
23072;SDS011;67971;51.046;3.732;2023-05-10T06:13:46;59.53;;;35.60;;
23072;SDS011;67971;51.046;3.732;2023-05-10T06:16:12;54.23;;;33.50;;
23072;SDS011;67971;51.046;3.732;2023-05-10T06:18:38;52.23;;;32.67;;
23072;SDS011;67971;51.046;3.732;2023-05-10T06:21:04;48.23;;;30.67;;
23072;SDS011;67971;51.046;3.732;2023-05-10T06:23:30;53.40;;;30.40;;
23072;SDS011;67971;51.046;3.732;2023-05-10T06:25:55;52.93;;;31.90;;
23072;SDS011;67971;51.046;3.732;2023-05-10T06:28:21;56.00;;;30.87;;
23072;SDS011;67971;51.046;3.732;2023-05-10T06:30:47;48.77;;;30.03;;
23072;SDS011;67971;51.046;3.732;2023-05-10T06:33:13;46.60;;;29.73;;
23072;SDS011;67971;51.046;3.732;2023-05-10T06:35:38;46.53;;;30.70;;
23072;SDS011;67971;51.046;3.732;2023-05-10T06:38:04;45.67;;;29.50;;
23072;SDS011;67971;51.046;3.732;2023-05-10T06:40:30;43.00;;;27.83;;
23072;SDS011;67971;51.046;3.732;2023-05-10T06:42:56;44.13;;;28.67;;
23072;SDS011;67971;51.046;3.732;2023-05-10T06:45:21;41.90;;;26.40;;
23072;SDS011;67971;51.046;3.732;2023-05-10T06:47:47;41.67;;;26.77;;
23072;SDS011;67971;51.046;3.732;2023-05-10T06:50:13;42.27;;;24.77;;
23072;SDS011;67971;51.046;3.732;2023-05-10T06:52:39;39.67;;;24.77;;
23072;SDS011;67971;51.046;3.732;2023-05-10T06:55:05;32.33;;;22.90;;
23072;SDS011;67971;51.046;3.732;2023-05-10T06:57:31;34.27;;;20.90;;
23072;SDS011;67971;51.046;3.732;2023-05-10T06:59:58;38.45;;;21.83;;
23072;SDS011;67971;51.046;3.732;2023-05-10T07:02:24;27.90;;;20.47;;
23072;SDS011;67971;51.046;3.732;2023-05-10T07:04:50;27.60;;;19.87;;
23072;SDS011;67971;51.046;3.732;2023-05-10T07:07:17;22.08;;;17.15;;
23072;SDS011;67971;51.046;3.732;2023-05-10T07:09:44;31.02;;;18.27;;
23072;SDS011;67971;51.046;3.732;2023-05-10T07:12:09;22.67;;;15.55;;
23072;SDS011;67971;51.046;3.732;2023-05-10T07:14:35;16.42;;;13.73;;
23072;SDS011;67971;51.046;3.732;2023-05-10T07:17:01;21.95;;;13.60;;
23072;SDS011;67971;51.046;3.732;2023-05-10T07:19:26;18.33;;;13.60;;
23072;SDS011;67971;51.046;3.732;2023-05-10T07:21:54;18.90;;;13.30;;
23072;SDS011;67971;51.046;3.732;2023-05-10T07:24:20;25.70;;;16.77;;
23072;SDS011;67971;51.046;3.732;2023-05-10T07:26:45;24.83;;;16.93;;
23072;SDS011;67971;51.046;3.732;2023-05-10T07:29:11;40.17;;;26.67;;
23072;SDS011;67971;51.046;3.732;2023-05-10T07:31:38;45.78;;;28.65;;
23072;SDS011;67971;51.046;3.732;2023-05-10T07:34:06;47.45;;;29.40;;
23072;SDS011;67971;51.046;3.732;2023-05-10T07:36:32;46.20;;;29.93;;
23072;SDS011;67971;51.046;3.732;2023-05-10T07:38:58;58.77;;;31.20;;
23072;SDS011;67971;51.046;3.732;2023-05-10T07:41:25;55.65;;;34.28;;
23072;SDS011;67971;51.046;3.732;2023-05-10T07:43:51;60.33;;;33.97;;
23072;SDS011;67971;51.046;3.732;2023-05-10T07:46:17;54.27;;;35.40;;
23072;SDS011;67971;51.046;3.732;2023-05-10T07:48:44;56.23;;;34.17;;
23072;SDS011;67971;51.046;3.732;2023-05-10T07:51:10;52.53;;;33.07;;
23072;SDS011;67971;51.046;3.732;2023-05-10T07:53:35;56.27;;;34.27;;
23072;SDS011;67971;51.046;3.732;2023-05-10T07:59:00;58.23;;;32.93;;
23072;SDS011;67971;51.046;3.732;2023-05-10T08:01:29;67.27;;;34.77;;
23072;SDS011;67971;51.046;3.732;2023-05-10T08:03:58;53.10;;;30.67;;
23072;SDS011;67971;51.046;3.732;2023-05-10T08:06:24;56.10;;;31.87;;
23072;SDS011;67971;51.046;3.732;2023-05-10T08:08:55;49.93;;;30.93;;
23072;SDS011;67971;51.046;3.732;2023-05-10T08:11:21;57.63;;;31.83;;
23072;SDS011;67971;51.046;3.732;2023-05-10T08:13:48;54.33;;;30.13;;
23072;SDS011;67971;51.046;3.732;2023-05-10T08:16:14;42.83;;;26.73;;
23072;SDS011;67971;51.046;3.732;2023-05-10T08:18:41;40.23;;;26.00;;
23072;SDS011;67971;51.046;3.732;2023-05-10T08:21:08;44.45;;;26.38;;
23072;SDS011;67971;51.046;3.732;2023-05-10T08:23:36;41.00;;;26.77;;
23072;SDS011;67971;51.046;3.732;2023-05-10T08:26:02;41.78;;;25.67;;
23072;SDS011;67971;51.046;3.732;2023-05-10T08:28:28;42.30;;;28.15;;
23072;SDS011;67971;51.046;3.732;2023-05-10T08:30:53;45.88;;;28.20;;
23072;SDS011;67971;51.046;3.732;2023-05-10T08:33:19;44.85;;;27.15;;
23072;SDS011;67971;51.046;3.732;2023-05-10T08:35:45;43.45;;;27.85;;
23072;SDS011;67971;51.046;3.732;2023-05-10T08:38:10;44.35;;;29.17;;
23072;SDS011;67971;51.046;3.732;2023-05-10T08:40:37;42.67;;;28.17;;
23072;SDS011;67971;51.046;3.732;2023-05-10T08:43:07;48.17;;;31.00;;
23072;SDS011;67971;51.046;3.732;2023-05-10T08:45:37;50.87;;;31.37;;
23072;SDS011;67971;51.046;3.732;2023-05-10T08:48:05;58.97;;;32.90;;
23072;SDS011;67971;51.046;3.732;2023-05-10T08:50:35;46.30;;;28.93;;
23072;SDS011;67971;51.046;3.732;2023-05-10T08:53:03;49.97;;;29.43;;
23072;SDS011;67971;51.046;3.732;2023-05-10T08:55:40;44.23;;;27.27;;
23072;SDS011;67971;51.046;3.732;2023-05-10T08:58:07;37.33;;;25.33;;
23072;SDS011;67971;51.046;3.732;2023-05-10T09:00:34;43.30;;;26.50;;
23072;SDS011;67971;51.046;3.732;2023-05-10T09:03:00;43.70;;;26.63;;
23072;SDS011;67971;51.046;3.732;2023-05-10T09:05:28;44.87;;;26.33;;
23072;SDS011;67971;51.046;3.732;2023-05-10T09:07:54;46.27;;;27.50;;
23072;SDS011;67971;51.046;3.732;2023-05-10T09:10:20;47.90;;;25.80;;
23072;SDS011;67971;51.046;3.732;2023-05-10T09:12:47;45.93;;;26.73;;
23072;SDS011;67971;51.046;3.732;2023-05-10T09:15:16;46.60;;;26.17;;
23072;SDS011;67971;51.046;3.732;2023-05-10T09:17:44;55.33;;;26.67;;
23072;SDS011;67971;51.046;3.732;2023-05-10T09:20:11;56.30;;;26.90;;
23072;SDS011;67971;51.046;3.732;2023-05-10T09:22:37;45.73;;;27.23;;
23072;SDS011;67971;51.046;3.732;2023-05-10T09:25:15;47.07;;;27.57;;
23072;SDS011;67971;51.046;3.732;2023-05-10T09:27:45;54.20;;;27.60;;
23072;SDS011;67971;51.046;3.732;2023-05-10T09:30:30;45.13;;;26.07;;
23072;SDS011;67971;51.046;3.732;2023-05-10T09:32:57;49.87;;;28.37;;
23072;SDS011;67971;51.046;3.732;2023-05-10T09:35:24;46.20;;;26.03;;
23072;SDS011;67971;51.046;3.732;2023-05-10T09:37:52;40.07;;;24.87;;
23072;SDS011;67971;51.046;3.732;2023-05-10T09:40:20;35.47;;;24.93;;
23072;SDS011;67971;51.046;3.732;2023-05-10T09:42:51;39.27;;;23.83;;
23072;SDS011;67971;51.046;3.732;2023-05-10T09:45:19;31.27;;;21.02;;
23072;SDS011;67971;51.046;3.732;2023-05-10T09:47:46;29.73;;;21.70;;
23072;SDS011;67971;51.046;3.732;2023-05-10T09:50:12;27.77;;;19.52;;
23072;SDS011;67971;51.046;3.732;2023-05-10T09:52:51;32.35;;;21.13;;
23072;SDS011;67971;51.046;3.732;2023-05-10T09:55:45;32.10;;;21.10;;
23072;SDS011;67971;51.046;3.732;2023-05-10T09:58:11;26.45;;;19.83;;
23072;SDS011;67971;51.046;3.732;2023-05-10T10:00:44;30.75;;;20.52;;
23072;SDS011;67971;51.046;3.732;2023-05-10T10:03:19;29.92;;;19.45;;
23072;SDS011;67971;51.046;3.732;2023-05-10T10:05:46;29.20;;;20.48;;
23072;SDS011;67971;51.046;3.732;2023-05-10T10:08:13;32.88;;;20.58;;
23072;SDS011;67971;51.046;3.732;2023-05-10T10:13:24;25.77;;;19.05;;
23072;SDS011;67971;51.046;3.732;2023-05-10T10:15:51;24.00;;;16.35;;
23072;SDS011;67971;51.046;3.732;2023-05-10T10:18:17;22.90;;;16.05;;
23072;SDS011;67971;51.046;3.732;2023-05-10T10:20:48;19.92;;;16.02;;
23072;SDS011;67971;51.046;3.732;2023-05-10T10:23:14;24.05;;;15.57;;
23072;SDS011;67971;51.046;3.732;2023-05-10T10:25:40;25.63;;;15.90;;
23072;SDS011;67971;51.046;3.732;2023-05-10T10:30:47;27.08;;;16.88;;
23072;SDS011;67971;51.046;3.732;2023-05-10T10:33:30;21.75;;;16.58;;
23072;SDS011;67971;51.046;3.732;2023-05-10T10:36:02;23.38;;;16.10;;
23072;SDS011;67971;51.046;3.732;2023-05-10T10:39:05;23.67;;;15.10;;
23072;SDS011;67971;51.046;3.732;2023-05-10T10:41:38;18.27;;;13.55;;
23072;SDS011;67971;51.046;3.732;2023-05-10T10:47:03;21.40;;;14.73;;
23072;SDS011;67971;51.046;3.732;2023-05-10T11:00:19;23.05;;;16.02;;
23072;SDS011;67971;51.046;3.732;2023-05-10T11:05:36;22.83;;;16.88;;
23072;SDS011;67971;51.046;3.732;2023-05-10T11:08:09;32.95;;;17.83;;
23072;SDS011;67971;51.046;3.732;2023-05-10T11:10:38;28.02;;;18.70;;
23072;SDS011;67971;51.046;3.732;2023-05-10T11:15:55;27.45;;;20.15;;
23072;SDS011;67971;51.046;3.732;2023-05-10T11:20:52;30.83;;;19.83;;
23072;SDS011;67971;51.046;3.732;2023-05-10T11:26:07;31.10;;;21.45;;
23072;SDS011;67971;51.046;3.732;2023-05-10T11:28:41;35.72;;;24.20;;
23072;SDS011;67971;51.046;3.732;2023-05-10T11:31:12;32.22;;;25.08;;
23072;SDS011;67971;51.046;3.732;2023-05-10T11:33:46;37.15;;;25.25;;
23072;SDS011;67971;51.046;3.732;2023-05-10T11:36:14;40.25;;;26.60;;
23072;SDS011;67971;51.046;3.732;2023-05-10T11:38:41;37.35;;;27.00;;
23072;SDS011;67971;51.046;3.732;2023-05-10T11:41:10;37.22;;;27.67;;
23072;SDS011;67971;51.046;3.732;2023-05-10T11:43:38;38.55;;;28.80;;
23072;SDS011;67971;51.046;3.732;2023-05-10T11:46:05;36.92;;;27.17;;
23072;SDS011;67971;51.046;3.732;2023-05-10T11:48:35;39.30;;;27.40;;
23072;SDS011;67971;51.046;3.732;2023-05-10T11:51:03;39.60;;;27.27;;
23072;SDS011;67971;51.046;3.732;2023-05-10T11:53:30;38.10;;;27.58;;
23072;SDS011;67971;51.046;3.732;2023-05-10T11:56:03;34.33;;;27.30;;
23072;SDS011;67971;51.046;3.732;2023-05-10T11:58:33;37.83;;;27.92;;
23072;SDS011;67971;51.046;3.732;2023-05-10T12:01:00;33.25;;;27.10;;
23072;SDS011;67971;51.046;3.732;2023-05-10T12:03:27;36.10;;;27.23;;
23072;SDS011;67971;51.046;3.732;2023-05-10T12:05:54;34.95;;;26.52;;
23072;SDS011;67971;51.046;3.732;2023-05-10T12:08:22;29.25;;;25.75;;
23072;SDS011;67971;51.046;3.732;2023-05-10T12:10:49;35.97;;;26.58;;
23072;SDS011;67971;51.046;3.732;2023-05-10T12:13:15;33.78;;;23.88;;
23072;SDS011;67971;51.046;3.732;2023-05-10T12:15:42;33.80;;;25.00;;
23072;SDS011;67971;51.046;3.732;2023-05-10T12:18:09;34.33;;;25.33;;
23072;SDS011;67971;51.046;3.732;2023-05-10T12:20:35;33.03;;;24.63;;
23072;SDS011;67971;51.046;3.732;2023-05-10T12:23:01;33.00;;;23.05;;
23072;SDS011;67971;51.046;3.732;2023-05-10T12:25:34;32.28;;;22.33;;
23072;SDS011;67971;51.046;3.732;2023-05-10T12:28:05;34.47;;;23.20;;
23072;SDS011;67971;51.046;3.732;2023-05-10T12:30:33;28.55;;;22.05;;
23072;SDS011;67971;51.046;3.732;2023-05-10T12:33:08;27.70;;;21.63;;
23072;SDS011;67971;51.046;3.732;2023-05-10T12:35:54;34.67;;;22.65;;
23072;SDS011;67971;51.046;3.732;2023-05-10T12:38:26;29.15;;;21.73;;
23072;SDS011;67971;51.046;3.732;2023-05-10T12:41:04;31.52;;;21.88;;
23072;SDS011;67971;51.046;3.732;2023-05-10T12:43:37;33.03;;;21.23;;
23072;SDS011;67971;51.046;3.732;2023-05-10T12:46:08;31.27;;;22.02;;
23072;SDS011;67971;51.046;3.732;2023-05-10T12:48:35;29.83;;;22.20;;
23072;SDS011;67971;51.046;3.732;2023-05-10T12:51:07;37.22;;;23.50;;
23072;SDS011;67971;51.046;3.732;2023-05-10T12:53:37;32.35;;;24.15;;
23072;SDS011;67971;51.046;3.732;2023-05-10T12:56:03;33.80;;;23.73;;
23072;SDS011;67971;51.046;3.732;2023-05-10T12:58:29;32.65;;;21.90;;
23072;SDS011;67971;51.046;3.732;2023-05-10T13:00:55;29.25;;;22.65;;
23072;SDS011;67971;51.046;3.732;2023-05-10T13:03:22;31.33;;;20.17;;
23072;SDS011;67971;51.046;3.732;2023-05-10T13:05:48;29.50;;;21.02;;
23072;SDS011;67971;51.046;3.732;2023-05-10T13:08:13;30.80;;;20.50;;
23072;SDS011;67971;51.046;3.732;2023-05-10T13:10:39;29.65;;;19.90;;
23072;SDS011;67971;51.046;3.732;2023-05-10T13:13:05;29.88;;;19.88;;
23072;SDS011;67971;51.046;3.732;2023-05-10T13:15:32;29.88;;;20.80;;
23072;SDS011;67971;51.046;3.732;2023-05-10T13:17:58;32.30;;;21.38;;
23072;SDS011;67971;51.046;3.732;2023-05-10T13:20:24;30.65;;;21.77;;
23072;SDS011;67971;51.046;3.732;2023-05-10T13:22:50;36.13;;;24.02;;
23072;SDS011;67971;51.046;3.732;2023-05-10T13:25:16;32.67;;;23.80;;
23072;SDS011;67971;51.046;3.732;2023-05-10T13:27:42;40.70;;;25.17;;
23072;SDS011;67971;51.046;3.732;2023-05-10T13:30:08;38.28;;;25.50;;
23072;SDS011;67971;51.046;3.732;2023-05-10T13:32:34;40.60;;;26.50;;
23072;SDS011;67971;51.046;3.732;2023-05-10T13:35:00;40.30;;;26.10;;
23072;SDS011;67971;51.046;3.732;2023-05-10T13:37:28;34.60;;;26.02;;
23072;SDS011;67971;51.046;3.732;2023-05-10T13:39:54;37.47;;;26.15;;
23072;SDS011;67971;51.046;3.732;2023-05-10T13:42:21;38.97;;;26.83;;
23072;SDS011;67971;51.046;3.732;2023-05-10T13:44:48;37.20;;;26.70;;
23072;SDS011;67971;51.046;3.732;2023-05-10T13:47:14;34.40;;;23.77;;
23072;SDS011;67971;51.046;3.732;2023-05-10T13:49:39;33.53;;;22.77;;
23072;SDS011;67971;51.046;3.732;2023-05-10T13:52:05;30.80;;;22.35;;
23072;SDS011;67971;51.046;3.732;2023-05-10T13:54:35;30.05;;;20.50;;
23072;SDS011;67971;51.046;3.732;2023-05-10T13:57:02;37.72;;;23.83;;
23072;SDS011;67971;51.046;3.732;2023-05-10T13:59:28;37.03;;;23.85;;
23072;SDS011;67971;51.046;3.732;2023-05-10T14:01:54;37.03;;;23.17;;
23072;SDS011;67971;51.046;3.732;2023-05-10T14:04:20;37.47;;;24.77;;
23072;SDS011;67971;51.046;3.732;2023-05-10T14:06:45;38.00;;;25.58;;
23072;SDS011;67971;51.046;3.732;2023-05-10T14:09:11;43.53;;;25.33;;
23072;SDS011;67971;51.046;3.732;2023-05-10T14:11:37;37.45;;;25.75;;
23072;SDS011;67971;51.046;3.732;2023-05-10T14:14:06;41.63;;;27.35;;
23072;SDS011;67971;51.046;3.732;2023-05-10T14:16:32;47.08;;;25.98;;
23072;SDS011;67971;51.046;3.732;2023-05-10T14:19:01;43.07;;;28.17;;
23072;SDS011;67971;51.046;3.732;2023-05-10T14:21:27;43.28;;;27.55;;
23072;SDS011;67971;51.046;3.732;2023-05-10T14:23:54;43.78;;;27.33;;
23072;SDS011;67971;51.046;3.732;2023-05-10T14:26:20;38.67;;;26.73;;
23072;SDS011;67971;51.046;3.732;2023-05-10T14:28:46;38.63;;;26.98;;
23072;SDS011;67971;51.046;3.732;2023-05-10T14:31:12;40.92;;;25.85;;
23072;SDS011;67971;51.046;3.732;2023-05-10T14:33:39;41.88;;;24.85;;
23072;SDS011;67971;51.046;3.732;2023-05-10T14:36:05;40.08;;;24.67;;
23072;SDS011;67971;51.046;3.732;2023-05-10T14:38:31;42.03;;;24.08;;
23072;SDS011;67971;51.046;3.732;2023-05-10T14:40:57;46.78;;;24.20;;
23072;SDS011;67971;51.046;3.732;2023-05-10T14:43:23;36.47;;;21.65;;
23072;SDS011;67971;51.046;3.732;2023-05-10T14:45:49;33.63;;;22.20;;
23072;SDS011;67971;51.046;3.732;2023-05-10T14:48:14;37.25;;;22.38;;
23072;SDS011;67971;51.046;3.732;2023-05-10T14:50:43;33.22;;;21.67;;
23072;SDS011;67971;51.046;3.732;2023-05-10T14:53:10;38.83;;;23.95;;
23072;SDS011;67971;51.046;3.732;2023-05-10T14:55:35;32.00;;;19.20;;
23072;SDS011;67971;51.046;3.732;2023-05-10T14:58:02;32.17;;;15.68;;
23072;SDS011;67971;51.046;3.732;2023-05-10T15:00:28;28.73;;;15.85;;
23072;SDS011;67971;51.046;3.732;2023-05-10T15:02:55;30.90;;;15.40;;
23072;SDS011;67971;51.046;3.732;2023-05-10T15:05:21;31.33;;;13.27;;
23072;SDS011;67971;51.046;3.732;2023-05-10T15:07:47;29.48;;;13.75;;
23072;SDS011;67971;51.046;3.732;2023-05-10T15:10:14;31.20;;;13.40;;
23072;SDS011;67971;51.046;3.732;2023-05-10T15:12:40;31.42;;;14.20;;
23072;SDS011;67971;51.046;3.732;2023-05-10T15:15:06;28.23;;;14.48;;